Página principal
METAR-TAF:

METAR-TAF

Aeroportos :

Brownwood, Texas, Estados Unidos

latitude: 31-48N, longitude: 098-57W, altura: 422 m

Observação actual do tempo

O boletim foi feito há 23 minutos, às 21:35 UTC
Vento 7 kt de noroeste
Temperatura 8°C
Humidade 49%
Pressão 1027 hPa
Visibilidade: 16.1 km
Céu limpo

METAR: KBWD 092135Z AUTO 32007KT 10SM CLR 08/M02 A3033 RMK AO1

Hora: 15:58 (21:58 UTC)


TAF: em falta

Observações e previsões do tempo de mais de 4000 aeroportos (mensagens METAR e TAF).

As estações disponíveis são os pontos amarelos e vermelhos sobre o mapa.

Mova o rato sobre o mapa para ver o nome da estação.

Depois clique no ponto para visualizar as observações e previsões meteorológicas.

Para alterar o mapa : clique nos botões verdes com uma cruz preta para aumentar o zoom; no botão verde com uma pitada de zoom; ou nas setas verdes para mapas adjacentes.


METAR-TAF: